Flight Track Log - Related Links

Times and Time Zones

All times are in EDT time to prevent confusion due to time zone crossing. See the AFR1910 flight status page for this flight to view local times or setup timezone preferences in your user account.

Time Position Orientation Groundspeed Altitude Reporting Facility
EDT Latitude Longitude Course Direction KTS MPH feet Rate Location/Type
Sun 02:17:00 PM 49.0534 2.9878 82° East  Level Estimated
Sun 02:18:00 PM 49.0635 3.1003 82° East  Level Estimated
Sun 02:19:00 PM 49.0736 3.2129 82° East  Level Estimated
Sun 02:20:00 PM 49.0835 3.3254 82° East  Level Estimated
Sun 02:21:00 PM 49.0933 3.4381 82° East  Level Estimated
Sun 02:22:00 PM 49.1030 3.5507 82° East  Level Estimated
Sun 02:23:00 PM 49.1126 3.6635 83° East  Level Estimated
Sun 02:24:00 PM 49.1221 3.7762 83° East  Level Estimated
Sun 02:25:00 PM 49.1315 3.8890 83° East  Level Estimated
Sun 02:26:00 PM 49.1408 4.0019 83° East  Level Estimated
Sun 02:27:00 PM 49.1499 4.1147 83° East  Level Estimated
Sun 02:28:00 PM 49.1590 4.2277 83° East  Level Estimated
Sun 02:29:00 PM 49.1679 4.3406 83° East  Level Estimated
Sun 02:30:00 PM 49.1767 4.4536 83° East  Level Estimated
Sun 02:31:00 PM 49.1855 4.5667 83° East  Level Estimated
Sun 02:32:00 PM 49.1941 4.6798 83° East  Level Estimated
Sun 02:33:00 PM 49.2026 4.7929 83° East  Level Estimated
Sun 02:34:00 PM 49.2109 4.9061 83° East  Level Estimated
Sun 02:35:00 PM 49.2192 5.0193 84° East  Level Estimated
Sun 02:36:00 PM 49.2274 5.1325 84° East  Level Estimated
Sun 02:37:00 PM 49.2355 5.2458 84° East  Level Estimated
Sun 02:38:00 PM 49.2434 5.3591 84° East  Level Estimated
Sun 02:39:00 PM 49.2513 5.4725 84° East  Level Estimated
Sun 02:40:00 PM 49.2590 5.5858 84° East  Level Estimated
Sun 02:41:00 PM 49.2666 5.6993 84° East  Level Estimated
Sun 02:42:00 PM 49.2741 5.8127 84° East  Level Estimated
Sun 02:43:00 PM 49.2815 5.9262 84° East  Level Estimated
Sun 02:44:00 PM 49.2888 6.0397 84° East  Level Estimated
Sun 02:45:00 PM 49.2959 6.1533 84° East  Level Estimated
Sun 02:46:00 PM 49.3030 6.2669 85° East  Level Estimated
Sun 02:47:00 PM 49.3099 6.3805 85° East  Level Estimated
Sun 02:48:00 PM 49.3168 6.4942 85° East  Level Estimated
Sun 02:49:00 PM 49.3241 6.6177 85° East  Level Estimated
Sun 02:50:00 PM 49.3312 6.7414 85° East  Level Estimated
Sun 02:51:00 PM 49.3383 6.8650 85° East  Level Estimated
Sun 02:52:00 PM 49.3452 6.9887 85° East  Level Estimated
Sun 02:53:00 PM 49.3520 7.1124 85° East  Level Estimated
Sun 02:54:00 PM 49.3586 7.2361 85° East  Level Estimated
Sun 02:55:00 PM 49.3651 7.3599 85° East  Level Estimated
Sun 02:56:00 PM 49.3715 7.4837 85° East  Level Estimated
Sun 02:57:00 PM 49.3778 7.6076 86° East  Level Estimated
Sun 02:58:00 PM 49.3839 7.7315 86° East  Level Estimated
Sun 02:59:00 PM 49.3899 7.8554 86° East  Level Estimated
Sun 03:00:00 PM 49.3957 7.9793 86° East  Level Estimated
Sun 03:01:00 PM 49.4014 8.1033 86° East  Level Estimated
Sun 03:02:00 PM 49.4070 8.2273 86° East  Level Estimated
Sun 03:03:00 PM 49.4125 8.3513 86° East  Level Estimated
Sun 03:04:00 PM 49.4178 8.4754 86° East  Level Estimated
Sun 03:05:00 PM 49.4230 8.5994 86° East  Level Estimated
Sun 03:06:00 PM 49.4280 8.7235 86° East  Level Estimated
Sun 03:07:00 PM 49.4329 8.8477 86° East  Level Estimated
Sun 03:08:00 PM 49.4377 8.9718 87° East  Level Estimated
Sun 03:09:00 PM 49.4424 9.0960 87° East  Level Estimated
Sun 03:10:00 PM 49.4469 9.2202 87° East  Level Estimated
Sun 03:11:00 PM 49.4513 9.3444 87° East  Level Estimated
Sun 03:12:00 PM 49.4556 9.4687 87° East  Level Estimated
Sun 03:13:00 PM 49.4597 9.5929 87° East  Level Estimated
Sun 03:14:00 PM 49.4637 9.7172 87° East  Level Estimated
Sun 03:15:00 PM 49.4675 9.8415 87° East  Level Estimated
Sun 03:16:00 PM 49.4713 9.9659 87° East  Level Estimated
Sun 03:17:00 PM 49.4749 10.0902 87° East  Level Estimated
Sun 03:18:00 PM 49.4783 10.2146 88° East  Level Estimated
Sun 03:19:00 PM 49.4816 10.3389 88° East  Level Estimated
Sun 03:20:00 PM 49.4848 10.4633 88° East  Level Estimated
Sun 03:21:00 PM 49.4879 10.5878 88° East  Level Estimated
Sun 03:22:00 PM 49.4908 10.7122 88° East  Level Estimated
Sun 03:23:00 PM 49.4937 10.8423 88° East  Level Estimated
Sun 03:24:00 PM 49.4965 10.9724 88° East  Level Estimated
Sun 03:25:00 PM 49.4986 11.0781 88° East  Level Estimated
Sun 03:26:00 PM 49.4986 11.0781 327° Northwest  Level Estimated
Sun 03:27:00 PM 49.4986 11.0781 327° Northwest  Level Estimated

Login

Don't have an account? Register now (free) for customized features, flight alerts, and more!